Latest Coastal Weather Observations for Green Cape

IDN60701

Issued at 4:51 am EST Tuesday 28 June 2022 (issued every 10 minutes, with the page automatically refreshed every 10 minutes)

About coastal observations | Map of coastal stations | Coastal observations for NSW | Marine services | Other Formats
Station Details ID: 069137 Name: GREEN CAPE AWS Lat: -37.26 Lon: 150.05 Height: 19.4 m
Data from the previous 72 hours. | See also: Recent months at Green Cape
Date/Time
EST
Wind Sea
Height
m
Swell Vis
km
Cloud Weather Temp
°C
Press
MSL
hPa
Rain since
9am
mm
Dir  Spd
kts
Gust
kts
Height
m
Period
s
Dir
28/04:30am W 10 12 - - - - - - - 8.2 1030.4 0.4
28/04:00am W 13 15 - - - - - - - 8.3 1030.3 0.4
28/03:30am W 12 15 - - - - - - - 8.6 1030.5 0.4
28/03:00am WSW 13 16 - - - - - - - 8.8 1030.6 0.4
28/02:30am W 12 15 - - - - - - - 8.6 1030.8 0.4
28/02:00am WSW 15 17 - - - - - - - 9.2 1030.8 0.4
28/01:30am WSW 16 18 - - - - - - - 9.3 1031.1 0.4
28/01:00am WSW 15 17 - - - - - - - 9.1 1031.1 0.4
28/12:30am WSW 16 18 - - - - - - - 9.2 1031.2 0.4
28/12:00am W 14 17 - - - - - - - 8.7 1031.5 0.4
 
Date/Time
EST
Wind Sea
Height
m
Swell Vis
km
Cloud Weather Temp
°C
Press
MSL
hPa
Rain since
9am
mm
Dir  Spd
kts
Gust
kts
Height
m
Period
s
Dir
27/11:30pm W 14 17 - - - - - - - 8.9 1031.5 0.4
27/11:00pm W 13 16 - - - - - - - 9.0 1031.8 0.4
27/10:30pm WSW 15 19 - - - - - - - 9.3 1031.6 0.4
27/10:00pm WSW 17 20 - - - - - - - 9.4 1031.5 0.4
27/09:30pm WSW 15 19 - - - - - - - 9.3 1031.5 0.4
27/09:00pm WSW 17 20 - - - - - - - 9.4 1031.3 0.4
27/08:30pm WSW 16 18 - - - - - - - 9.6 1031.2 0.4
27/08:00pm WSW 16 20 - - - - - - - 9.9 1031.1 0.4
27/07:30pm SW 19 25 - - - - - - - 9.7 1030.9 0.4
27/07:00pm WSW 18 20 - - - - - - - 9.8 1030.6 0.2
27/06:30pm WSW 20 24 - - - - - - - 9.9 1030.4 0.2
27/06:00pm SW 16 19 - - - - - - Recent precip. 9.9 1030.4 0.2
27/05:30pm WSW 21 27 - - - - - - - 9.9 1029.8 0.2
27/05:00pm WSW 21 24 - - - - - - - 10.1 1029.7 0.0
27/04:30pm WSW 21 25 - - - - - - - 10.3 1029.3 0.0
27/04:00pm SW 22 28 - - - - - - - 10.1 1029.0 0.0
27/03:30pm WSW 21 25 - - - - - - - 10.4 1028.8 0.0
27/03:00pm WSW 22 26 - - - - - - - 10.7 1028.6 0.0
27/02:30pm WSW 15 19 - - - - - - - 11.1 1028.6 0.0
27/02:00pm SW 18 24 - - - - - - - 11.6 1028.4 0.0
27/01:30pm SW 23 29 - - - - - - - 11.4 1027.9 0.0
27/01:00pm SW 26 31 - - - - - - - 12.1 1027.4 0.0
27/12:30pm SW 25 32 - - - - - - - 11.7 1027.7 0.0
27/12:00pm SW 23 28 - - - - - - - 12.1 1027.5 0.0
27/11:49am SW 22 32 - - - - - - - 11.9 1027.3 0.0
27/11:30am SW 21 27 - - - - - - - 11.9 1027.6 0.0
27/11:00am SW 20 26 - - - - - - - 11.4 1028.0 0.0
27/10:30am SW 22 30 - - - - - - - 11.1 1027.9 0.0
27/10:00am SW 25 33 - - - - - - - 10.8 1027.7 0.0
27/09:30am WSW 28 35 - - - - - - - 10.4 1027.5 0.0
27/09:17am WSW 24 34 - - - - - - - 10.3 1027.6 0.0
27/09:00am WSW 27 33 - - - - - - - 10.2 1027.5 0.0
27/08:41am WSW 28 38 - - - - - - - 10.3 1027.4 0.0
27/08:30am SW 27 34 - - - - - - - 10.1 1027.2 0.0
27/08:20am WSW 26 36 - - - - - - - 9.7 1027.1 0.0
27/08:00am WSW 24 29 - - - - - - - 9.8 1027.2 0.0
27/07:30am WSW 22 27 - - - - - - - 9.7 1027.3 0.0
27/07:00am SW 23 31 - - - - - - - 9.7 1027.1 0.0
27/06:30am SW 22 27 - - - - - - - 9.8 1026.5 0.0
27/06:00am SW 20 26 - - - - - - - 10.0 1026.2 0.0
27/05:30am SW 22 30 - - - - - - - 10.2 1026.1 0.0
27/05:00am WSW 22 26 - - - - - - - 10.2 1025.6 0.0
27/04:30am SW 19 22 - - - - - - - 10.2 1025.7 0.0
27/04:00am WSW 18 24 - - - - - - - 10.5 1025.4 0.0
27/03:30am WSW 18 22 - - - - - - - 10.4 1025.2 0.0
27/03:00am WSW 15 18 - - - - - - - 10.5 1025.4 0.0
27/02:30am SW 17 21 - - - - - - - 10.4 1025.2 0.0
27/02:00am SW 18 24 - - - - - - - 10.7 1025.3 0.0
27/01:30am SW 17 20 - - - - - - - 10.6 1025.2 0.0
27/01:00am WSW 16 18 - - - - - - - 10.6 1025.3 0.0
27/12:30am WSW 16 18 - - - - - - - 10.6 1025.4 0.0
27/12:00am SW 17 20 - - - - - - - 10.7 1025.3 0.0
 
Date/Time
EST
Wind Sea
Height
m
Swell Vis
km
Cloud Weather Temp
°C
Press
MSL
hPa
Rain since
9am
mm
Dir  Spd
kts
Gust
kts
Height
m
Period
s
Dir
26/11:30pm WSW 15 18 - - - - - - - 11.0 1025.4 0.0
26/11:00pm WSW 13 16 - - - - - - - 11.2 1025.4 0.0
26/10:30pm SW 16 19 - - - - - - - 11.5 1025.2 0.0
26/10:00pm SW 16 21 - - - - - - - 11.7 1024.9 0.0
26/09:30pm SW 19 23 - - - - - - - 11.9 1025.0 0.0
26/09:00pm WSW 15 17 - - - - - - - 12.1 1024.6 0.0
26/08:30pm SW 14 18 - - - - - - - 12.2 1024.2 0.0
26/08:00pm WSW 12 14 - - - - - - - 12.4 1024.1 0.0
26/07:30pm SW 13 15 - - - - - - - 12.4 1023.9 0.0
26/07:00pm SW 12 14 - - - - - - - 12.7 1023.6 0.0
26/06:30pm SSW 13 16 - - - - - - - 12.8 1023.2 0.0
26/06:00pm SSW 14 16 - - - - - - - 12.7 1022.8 0.0
26/05:30pm S 15 17 - - - - - - - 13.0 1022.4 0.0
26/05:00pm S 21 23 - - - - - - - 13.2 1021.6 0.0
26/04:30pm S 23 26 - - - - - - - 13.6 1021.2 0.0
26/04:17pm S 15 23 - - - - - - - 14.3 1021.2 0.0
26/04:00pm CALM 0 0 - - - - - - - 15.4 1021.3 0.0
26/03:30pm CALM 0 4 - - - - - - - 15.6 1021.1 0.0
26/03:00pm CALM 0 4 - - - - - - - 16.2 1021.0 0.0
26/02:30pm CALM 0 5 - - - - - - - 16.8 1020.9 0.0
26/02:00pm CALM 0 0 - - - - - - - 17.3 1020.8 0.0
26/01:30pm CALM 0 0 - - - - - - - 16.7 1020.8 0.0
26/01:00pm CALM 0 0 - - - - - - - 16.5 1020.9 0.0
26/12:30pm CALM 0 9 - - - - - - - 16.7 1021.4 0.0
26/12:00pm CALM 0 0 - - - - - - - 15.8 1021.9 0.0
26/11:30am WNW 9 13 - - - - - - - 16.0 1021.9 0.0
26/11:00am W 4 9 - - - - - - - 14.3 1022.2 0.0
26/10:30am W 10 11 - - - - - - - 13.0 1022.6 0.0
26/10:00am W 13 15 - - - - - - - 12.6 1022.7 0.0
26/09:30am W 15 17 - - - - - - - 11.9 1022.6 0.0
26/09:00am W 13 15 - - - - - - - 11.6 1022.3 0.0
26/08:30am W 15 17 - - - - - - - 11.3 1022.1 0.0
26/08:00am W 3 17 - - - - - - - 10.5 1021.7 0.0
26/07:30am CALM 0 0 - - - - - - - 11.1 1021.5 0.0
26/07:00am CALM 0 0 - - - - - - - 10.9 1021.4 0.0
26/06:30am CALM 0 0 - - - - - - - 10.3 1021.2 0.0
26/06:00am CALM 0 0 - - - - - - - 10.8 1021.0 0.0
26/05:30am CALM 0 0 - - - - - - - 10.6 1020.9 0.0
26/05:00am CALM 0 0 - - - - - - - 10.6 1020.8 0.0
26/04:30am CALM 0 0 - - - - - - - 10.7 1020.6 0.0
26/04:00am CALM 0 0 - - - - - - - 10.7 1020.5 0.0
26/03:30am CALM 0 0 - - - - - - - 10.9 1020.7 0.0
26/03:00am CALM 0 0 - - - - - - - 10.5 1020.7 0.0
26/02:30am CALM 0 0 - - - - - - - 10.3 1020.7 0.0
26/02:00am CALM 0 0 - - - - - - - 9.5 1020.8 0.0
26/01:30am CALM 0 0 - - - - - - - 9.7 1020.8 0.0
26/01:00am CALM 0 0 - - - - - - - 9.9 1020.8 0.0
26/12:30am CALM 0 0 - - - - - - - 10.3 1021.0 0.0
26/12:00am CALM 0 0 - - - - - - - 9.7 1021.1 0.0
 
Date/Time
EST
Wind Sea
Height
m
Swell Vis
km
Cloud Weather Temp
°C
Press
MSL
hPa
Rain since
9am
mm
Dir  Spd
kts
Gust
kts
Height
m
Period
s
Dir
25/11:30pm CALM 0 0 - - - - - - - 9.4 1020.9 0.0
25/11:00pm CALM 0 0 - - - - - - - 10.4 1020.9 0.0
25/10:30pm CALM 0 0 - - - - - - - 9.9 1020.9 0.0
25/10:00pm CALM 0 0 - - - - - - - 10.1 1020.8 0.0
25/09:30pm CALM 0 0 - - - - - - - 10.9 1021.0 0.0
25/09:00pm CALM 0 0 - - - - - - - 12.0 1021.0 0.0
25/08:30pm CALM 0 0 - - - - - - - 11.8 1020.9 0.0
25/08:00pm CALM 0 0 - - - - - - - 11.3 1021.0 0.0
25/07:30pm CALM 0 0 - - - - - - - 10.9 1020.8 0.0
25/07:00pm NNW 2 4 - - - - - - - 11.8 1020.7 0.0
25/06:30pm NNW 7 8 - - - - - - - 12.7 1020.3 0.0
25/06:00pm CALM 0 0 - - - - - - - 12.8 1020.0 0.0
25/05:30pm CALM 0 0 - - - - - - - 12.8 1019.6 0.0
25/05:00pm N 1 7 - - - - - - - 13.3 1019.4 0.0
25/04:30pm N 5 7 - - - - - - - 13.9 1019.4 0.0
25/04:00pm NNE 1 5 - - - - - - - 14.6 1019.1 0.0
25/03:30pm CALM 0 0 - - - - - - - 14.6 1019.0 0.0
25/03:00pm CALM 0 0 - - - - - - - 15.1 1018.8 0.0
25/02:30pm CALM 0 0 - - - - - - - 15.3 1018.7 0.0
25/02:00pm CALM 0 0 - - - - - - - 15.8 1018.8 0.0
25/01:30pm CALM 0 0 - - - - - - - 15.7 1019.0 0.0
25/01:00pm CALM 0 0 - - - - - - - 16.2 1019.2 0.0
25/12:30pm CALM 0 0 - - - - - - - 16.3 1019.3 0.0
25/12:00pm CALM 0 0 - - - - - - - 15.2 1019.5 0.0
25/11:30am NNE 6 10 - - - - - - - 14.9 1019.6 0.0
25/11:00am CALM 0 0 - - - - - - - 13.1 1019.9 0.0
25/10:30am CALM 0 3 - - - - - - - 12.7 1020.0 0.0
25/10:00am NW 1 5 - - - - - - - 12.0 1020.1 0.0
25/09:30am CALM 0 4 - - - - - - - 11.7 1019.7 0.0
25/09:00am CALM 0 0 - - - - - - - 12.5 1019.5 0.0
25/08:30am NNW 1 4 - - - - - - - 10.9 1019.4 0.0
25/08:00am CALM 0 0 - - - - - - - 10.1 1019.1 0.0
25/07:30am CALM 0 0 - - - - - - - 9.5 1018.9 0.0
25/07:00am CALM 0 0 - - - - - - - 9.4 1018.6 0.0
25/06:30am CALM 0 0 - - - - - - - 9.9 1018.5 0.0
25/06:00am CALM 0 0 - - - - - - - 10.0 1018.2 0.0
25/05:30am CALM 0 0 - - - - - - - 9.9 1017.8 0.0
25/05:00am CALM 0 0 - - - - - - - 10.1 1017.6 0.0

Other formats

Comma delimited format used in spreadsheet applications
http://www.bom.gov.au/fwo/IDN60701/IDN60701.94934.axf

JavaScript Object Notation format (JSON) in row-major order
http://www.bom.gov.au/fwo/IDN60701/IDN60701.94934.json

Data quality

Most of these data are generated automatically and are frequently updated. Quality checks on data are not normally performed. It is possible for incorrect values to appear. Refer to information at About Latest Weather Observations and please check the disclaimer before using these data.